Etusivu
METAR-TAF:

METAR-TAF

Lentoasemat :

Newnan-Coweta County Airport

Newnan, Georgia, Yhdysvallat

Leveyspiiri: 33-18-44N, Pituuspiiri: 084-46-13W, korkeus merenpinnasta: 296 m

Tämänhetkinen sää

Tämä raportti tehtiin 27 minuuttia sitten, kello 10.35 UTC
Tuuli 6 kn idästä
Lämpötila 21°C
Kosteus 94%
Ilmanpaine 1018 hPa
Näkyvyys: 16.1 km
Pilvistä 700 ft:n korkeudessa

METAR: KCCO 251035Z AUTO 10006KT 10SM OVC007 21/20 A3007 RMK AO2 T02110198

Aika: 07:02 (11:02 UTC)


TAF: puuttuu

Säähavainnot ja -ennusteet yli 4000 lentoasemalta (METAR- ja TAF-raportit).

Käytössä olevat sääasemat on merkitty karttaan keltaisilla ja punaisilla pisteillä.

Aseta hiiri pisteen päälle nähdäksesi sääaseman nimen.

Klikkaa sitten nähdäksesi säähavainnot ja -ennusteet.

Kartan vaihtaminen: klikkaa mustalla rastilla varustettuja vihreitä pisteitä, niin voit zoomata sisään; viivalla varustettua vihreää pistettä, niin voit zoomata ulos tai vihreitä nuolia, niin pääset viereisille kartoille.


METAR-TAF: